createdAt,value
2018-11-05T00:00:38.135Z,78.31
2018-11-05T00:04:02.948Z,78.06
2018-11-05T00:07:27.775Z,77.72
2018-11-05T00:10:52.611Z,77.69
2018-11-05T00:14:17.410Z,77.64
2018-11-05T00:17:42.209Z,77.19
2018-11-05T00:21:07.157Z,78.00
2018-11-05T00:24:32.099Z,77.71
2018-11-05T00:27:56.979Z,78.22
2018-11-05T00:31:21.831Z,78.43
2018-11-05T00:34:46.684Z,78.42
2018-11-05T00:38:11.549Z,78.30
2018-11-05T00:41:36.572Z,77.97
2018-11-05T00:45:01.386Z,77.92
2018-11-05T00:48:26.204Z,77.80
2018-11-05T00:51:51.055Z,78.39
2018-11-05T00:55:15.946Z,78.60
2018-11-05T00:58:40.841Z,78.48
2018-11-05T01:02:05.914Z,78.35
2018-11-05T01:05:30.717Z,78.18
2018-11-05T01:08:55.563Z,78.51
2018-11-05T01:12:20.524Z,78.67
2018-11-05T01:15:45.285Z,77.94
2018-11-05T01:19:11.090Z,78.44
2018-11-05T01:22:35.957Z,77.74
2018-11-05T01:26:00.791Z,78.23
2018-11-05T01:29:25.698Z,78.00
2018-11-05T01:32:50.489Z,78.23
2018-11-05T01:36:15.221Z,78.18
2018-11-05T01:39:40.011Z,77.96
2018-11-05T01:43:04.881Z,77.85
2018-11-05T01:46:29.641Z,78.84
2018-11-05T01:49:54.499Z,77.83
2018-11-05T01:53:19.392Z,77.92
2018-11-05T01:56:44.384Z,78.40
2018-11-05T02:00:13.198Z,78.00
2018-11-05T02:03:38.048Z,77.79
2018-11-05T02:07:02.932Z,78.23
2018-11-05T02:10:27.879Z,78.21
2018-11-05T02:13:52.530Z,78.94
2018-11-05T02:17:17.311Z,78.63
2018-11-05T02:20:42.148Z,77.97
2018-11-05T02:24:07.044Z,78.57
2018-11-05T02:27:32.047Z,78.40
2018-11-05T02:30:56.819Z,78.25
2018-11-05T02:34:21.737Z,78.79
2018-11-05T02:37:47.161Z,78.66
2018-11-05T02:41:12.038Z,78.72
2018-11-05T02:44:36.858Z,78.83
2018-11-05T02:48:01.778Z,78.61
2018-11-05T02:51:26.602Z,78.59
2018-11-05T02:54:51.391Z,78.07
2018-11-05T02:58:17.269Z,78.10
2018-11-05T03:01:42.047Z,79.09
2018-11-05T03:05:09.668Z,78.50
2018-11-05T03:08:34.512Z,78.83
2018-11-05T03:11:59.297Z,78.74
2018-11-05T03:15:24.085Z,79.07
2018-11-05T03:18:48.900Z,78.65
2018-11-05T03:22:13.708Z,79.56
2018-11-05T03:25:38.521Z,78.86
2018-11-05T03:29:03.351Z,79.05
2018-11-05T03:32:28.149Z,79.18
2018-11-05T03:35:53.102Z,78.10
2018-11-05T03:39:17.839Z,78.47
2018-11-05T03:42:43.233Z,78.65
2018-11-05T03:46:08.046Z,78.68
2018-11-05T03:49:32.917Z,79.14
2018-11-05T03:52:57.764Z,79.00
2018-11-05T03:56:22.691Z,78.19
2018-11-05T03:59:47.428Z,78.88
2018-11-05T04:03:12.220Z,78.50
2018-11-05T04:06:36.994Z,78.97
2018-11-05T04:10:01.873Z,78.73
2018-11-05T04:13:26.707Z,78.17
2018-11-05T04:16:51.506Z,78.69
2018-11-05T04:20:16.325Z,78.35
2018-11-05T04:23:41.263Z,78.67
2018-11-05T04:27:06.647Z,78.96
2018-11-05T04:30:31.503Z,78.60
2018-11-05T04:33:56.281Z,78.92
2018-11-05T04:37:21.078Z,78.71
2018-11-05T04:40:45.869Z,78.63
2018-11-05T04:44:10.904Z,78.51
2018-11-05T04:47:35.650Z,78.37
2018-11-05T04:51:00.527Z,78.36
2018-11-05T04:54:25.295Z,78.05
2018-11-05T04:57:50.037Z,78.86
2018-11-05T05:01:14.851Z,79.08
2018-11-05T05:04:39.826Z,79.16
2018-11-05T05:08:04.614Z,78.57
2018-11-05T05:11:29.449Z,78.86
2018-11-05T05:14:54.294Z,78.93
2018-11-05T05:18:19.076Z,78.76
2018-11-05T05:21:43.817Z,78.52
2018-11-05T05:25:08.683Z,79.13
2018-11-05T05:28:33.545Z,79.39
2018-11-05T05:31:58.307Z,78.80
2018-11-05T05:35:23.094Z,79.23
2018-11-05T05:38:47.868Z,78.86
2018-11-05T05:42:12.628Z,79.48
2018-11-05T05:45:37.380Z,79.02
2018-11-05T05:49:02.135Z,79.26
2018-11-05T05:52:26.868Z,78.60
2018-11-05T05:55:51.633Z,78.61
2018-11-05T05:59:16.355Z,79.16
2018-11-05T06:02:41.578Z,78.70
2018-11-05T06:06:07.330Z,78.92
2018-11-05T06:09:31.990Z,79.09
2018-11-05T06:12:56.658Z,79.12
2018-11-05T06:16:21.379Z,78.54
2018-11-05T06:19:46.209Z,78.74
2018-11-05T06:23:10.942Z,78.44
2018-11-05T06:26:35.735Z,78.34
2018-11-05T06:30:00.451Z,78.37
2018-11-05T06:33:25.193Z,83.24
2018-11-05T06:36:49.961Z,76.60
2018-11-05T06:40:17.595Z,77.64
2018-11-05T06:43:42.378Z,77.48
2018-11-05T06:47:07.194Z,78.32
2018-11-05T06:50:31.942Z,78.44
2018-11-05T06:53:56.736Z,78.97
2018-11-05T06:57:21.454Z,78.95
2018-11-05T07:00:46.209Z,78.89
2018-11-05T07:04:10.950Z,79.72
2018-11-05T07:07:35.809Z,79.40
2018-11-05T07:11:00.539Z,79.73
2018-11-05T07:14:25.302Z,79.42
2018-11-05T07:17:50.609Z,79.21
2018-11-05T07:21:15.296Z,78.71
2018-11-05T07:24:40.069Z,78.46
2018-11-05T07:28:04.828Z,78.20
2018-11-05T07:31:29.524Z,78.58
2018-11-05T07:34:54.247Z,78.25
2018-11-05T07:38:18.969Z,77.98
2018-11-05T07:41:43.662Z,77.44
2018-11-05T07:45:11.364Z,77.30
2018-11-05T07:48:36.067Z,76.30
2018-11-05T07:52:00.819Z,76.01
2018-11-05T07:55:25.564Z,76.14
2018-11-05T07:58:50.302Z,76.60
2018-11-05T08:02:15.033Z,76.52
2018-11-05T08:05:39.737Z,75.77
2018-11-05T08:09:06.304Z,75.61
2018-11-05T08:12:30.972Z,75.58
2018-11-05T08:15:55.754Z,75.42
2018-11-05T08:19:20.536Z,74.88
2018-11-05T08:22:45.269Z,73.82
2018-11-05T08:26:10.015Z,73.39
2018-11-05T08:29:34.719Z,72.58
2018-11-05T08:32:59.463Z,71.92
2018-11-05T08:36:24.165Z,71.18
2018-11-05T08:39:48.886Z,70.09
2018-11-05T08:43:13.562Z,69.63
2018-11-05T08:46:38.259Z,70.44
2018-11-05T08:50:03.091Z,69.62
2018-11-05T08:53:27.745Z,70.05
2018-11-05T08:56:52.472Z,70.02
2018-11-05T09:00:23.807Z,69.47
2018-11-05T09:03:50.270Z,69.48
2018-11-05T09:07:14.998Z,69.32
2018-11-05T09:10:39.903Z,68.84
2018-11-05T09:14:04.603Z,68.32
2018-11-05T09:17:29.353Z,69.00
2018-11-05T09:20:54.165Z,68.91
2018-11-05T09:24:18.864Z,68.81
2018-11-05T09:27:43.641Z,69.06
2018-11-05T09:31:08.373Z,68.49
2018-11-05T09:34:33.073Z,68.37
2018-11-05T09:37:57.887Z,67.91
2018-11-05T09:41:22.629Z,69.20
2018-11-05T09:44:47.541Z,68.08
2018-11-05T09:48:12.226Z,68.94
2018-11-05T09:51:37.386Z,69.26
2018-11-05T09:55:02.205Z,69.11
2018-11-05T09:58:26.940Z,68.56
2018-11-05T10:01:51.750Z,66.75
2018-11-05T10:05:24.168Z,66.11
2018-11-05T10:08:50.257Z,64.37
2018-11-05T10:12:15.594Z,64.61
2018-11-05T10:15:40.365Z,64.59
2018-11-05T10:19:05.104Z,63.87
2018-11-05T10:22:29.775Z,63.56
2018-11-05T10:25:54.468Z,64.37
2018-11-05T10:29:19.286Z,64.18
2018-11-05T10:32:44.401Z,66.11
2018-11-05T10:36:09.178Z,65.80
2018-11-05T10:39:33.883Z,65.42
2018-11-05T10:42:58.745Z,65.96
2018-11-05T10:46:23.567Z,66.19
2018-11-05T10:49:48.313Z,65.25
2018-11-05T10:53:13.048Z,65.76
2018-11-05T10:56:37.812Z,66.43
2018-11-05T11:00:02.525Z,65.11
2018-11-05T11:03:34.186Z,65.58
2018-11-05T11:06:59.024Z,65.00
2018-11-05T11:10:24.209Z,64.83
2018-11-05T11:13:48.868Z,65.96
2018-11-05T11:17:13.657Z,64.35
2018-11-05T11:20:38.918Z,64.51
2018-11-05T11:24:09.915Z,65.02
2018-11-05T11:27:34.698Z,65.05
2018-11-05T11:30:59.381Z,64.00
2018-11-05T11:34:24.821Z,63.96
2018-11-05T11:37:49.521Z,62.31
2018-11-05T11:41:14.246Z,61.33
2018-11-05T11:44:39.013Z,63.07
2018-11-05T11:48:03.655Z,62.45
2018-11-05T11:51:28.389Z,59.81
2018-11-05T11:54:53.177Z,57.84
2018-11-05T11:58:17.907Z,58.08
2018-11-05T12:01:47.773Z,59.23
2018-11-05T12:05:31.999Z,59.88
2018-11-05T12:08:56.690Z,59.74
2018-11-05T12:12:21.400Z,60.05
2018-11-05T12:15:46.124Z,60.09
2018-11-05T12:19:10.940Z,59.03
2018-11-05T12:22:35.660Z,59.19
2018-11-05T12:26:00.403Z,58.71
2018-11-05T12:29:25.185Z,56.52
2018-11-05T12:32:50.754Z,56.59
2018-11-05T12:36:15.498Z,56.71
2018-11-05T12:39:40.238Z,57.54
2018-11-05T12:43:05.001Z,56.76
2018-11-05T12:46:29.742Z,56.84
2018-11-05T12:49:54.432Z,56.13
2018-11-05T12:53:19.093Z,54.69
2018-11-05T12:56:43.885Z,55.90
2018-11-05T13:00:15.470Z,56.65
2018-11-05T13:03:40.199Z,55.75
2018-11-05T13:07:04.946Z,56.88
2018-11-05T13:10:29.669Z,56.77
2018-11-05T13:13:54.433Z,56.50
2018-11-05T13:17:19.169Z,56.72
2018-11-05T13:20:43.934Z,55.87
2018-11-05T13:24:08.714Z,55.48
2018-11-05T13:27:33.521Z,55.03
2018-11-05T13:30:58.392Z,55.00
2018-11-05T13:34:23.130Z,54.18
2018-11-05T13:37:48.388Z,51.78
2018-11-05T13:41:12.568Z,51.96
2018-11-05T13:44:37.519Z,53.28
2018-11-05T13:48:02.508Z,55.71
2018-11-05T13:51:26.979Z,57.63
2018-11-05T13:54:52.847Z,57.70
2018-11-05T13:58:23.314Z,56.33
2018-11-05T14:01:49.895Z,57.01
2018-11-05T14:05:14.771Z,57.23
2018-11-05T14:08:39.485Z,57.05
2018-11-05T14:12:04.188Z,57.51
2018-11-05T14:15:28.952Z,57.23
2018-11-05T14:18:53.958Z,55.76
2018-11-05T14:22:18.765Z,56.25
2018-11-05T14:25:43.596Z,54.99
2018-11-05T14:29:08.903Z,50.94
2018-11-05T14:32:33.376Z,49.06
2018-11-05T14:35:58.181Z,48.42
2018-11-05T14:39:22.897Z,50.47
2018-11-05T14:42:47.704Z,50.07
2018-11-05T14:46:12.521Z,52.29
2018-11-05T14:49:37.275Z,52.41
2018-11-05T14:53:02.004Z,51.54
2018-11-05T14:56:26.778Z,53.53
2018-11-05T14:59:51.576Z,55.10
2018-11-05T15:03:16.341Z,53.89
2018-11-05T15:06:41.013Z,52.87
2018-11-05T15:10:06.046Z,53.60
2018-11-05T15:13:30.800Z,53.87
2018-11-05T15:16:55.567Z,55.99
2018-11-05T15:20:21.902Z,56.73
2018-11-05T15:23:47.573Z,58.65
2018-11-05T15:27:12.609Z,57.99
2018-11-05T15:30:37.389Z,60.36
2018-11-05T15:34:02.117Z,60.14
2018-11-05T15:37:26.865Z,61.20
2018-11-05T15:40:51.543Z,61.66
2018-11-05T15:44:16.240Z,61.51
2018-11-05T15:47:41.489Z,62.09
2018-11-05T15:51:06.426Z,61.94
2018-11-05T15:54:31.387Z,62.47
2018-11-05T15:57:55.965Z,64.06
2018-11-05T16:01:20.641Z,63.55
2018-11-05T16:04:45.391Z,64.00
2018-11-05T16:08:10.098Z,64.79
2018-11-05T16:11:34.834Z,64.83
2018-11-05T16:14:59.725Z,65.96
2018-11-05T16:18:24.335Z,66.04
2018-11-05T16:21:49.064Z,65.58
2018-11-05T16:25:13.855Z,66.32
2018-11-05T16:28:38.574Z,66.67
2018-11-05T16:32:03.362Z,66.49
2018-11-05T16:35:28.166Z,67.02
2018-11-05T16:38:52.879Z,67.62
2018-11-05T16:42:17.591Z,67.77
2018-11-05T16:45:42.363Z,68.20
2018-11-05T16:49:07.325Z,67.82
2018-11-05T16:52:32.044Z,67.31
2018-11-05T16:55:56.765Z,66.56
2018-11-05T16:59:21.476Z,66.81
2018-11-05T17:02:47.056Z,67.58
2018-11-05T17:06:11.571Z,67.50
2018-11-05T17:09:36.319Z,67.02
2018-11-05T17:13:01.011Z,66.57
2018-11-05T17:16:25.753Z,67.33
2018-11-05T17:19:50.530Z,67.13
2018-11-05T17:23:15.266Z,67.07
2018-11-05T17:26:40.001Z,68.04
2018-11-05T17:30:05.299Z,68.29
2018-11-05T17:33:30.092Z,68.37
2018-11-05T17:36:54.847Z,68.00
2018-11-05T17:40:21.196Z,69.16
2018-11-05T17:43:45.824Z,69.42
2018-11-05T17:47:10.614Z,68.99
2018-11-05T17:50:36.491Z,69.02
2018-11-05T17:54:01.548Z,68.84
2018-11-05T17:57:26.358Z,69.07
2018-11-05T18:00:51.139Z,69.19
2018-11-05T18:04:15.967Z,69.68
2018-11-05T18:07:40.596Z,69.71
2018-11-05T18:11:05.644Z,69.22
2018-11-05T18:14:30.664Z,69.19
2018-11-05T18:17:55.501Z,68.68
2018-11-05T18:21:20.482Z,69.28
2018-11-05T18:24:45.427Z,69.24
2018-11-05T18:28:10.270Z,69.53
2018-11-05T18:31:35.695Z,69.94
2018-11-05T18:35:00.944Z,69.47
2018-11-05T18:38:25.751Z,70.47
2018-11-05T18:41:50.542Z,69.73
2018-11-05T18:45:15.406Z,69.84
2018-11-05T18:48:40.065Z,69.49
2018-11-05T18:52:04.860Z,70.12
2018-11-05T18:55:29.572Z,70.08
2018-11-05T18:58:54.298Z,70.35
2018-11-05T19:02:24.063Z,70.30
2018-11-05T19:05:48.756Z,69.13
2018-11-05T19:09:13.476Z,69.39
2018-11-05T19:12:38.253Z,69.60
2018-11-05T19:16:03.529Z,70.30
2018-11-05T19:19:28.269Z,69.29
2018-11-05T19:22:53.126Z,70.30
2018-11-05T19:26:17.859Z,70.55
2018-11-05T19:29:42.584Z,70.61
2018-11-05T19:33:08.064Z,70.16
2018-11-05T19:36:32.814Z,70.50
2018-11-05T19:39:57.620Z,70.44
2018-11-05T19:43:23.366Z,70.64
2018-11-05T19:46:48.063Z,69.95
2018-11-05T19:50:15.306Z,70.84
2018-11-05T19:53:40.135Z,70.36
2018-11-05T19:57:06.212Z,70.58
2018-11-05T20:00:31.370Z,72.01
2018-11-05T20:04:27.403Z,71.45
2018-11-05T20:07:52.921Z,72.04
2018-11-05T20:11:17.781Z,71.21
2018-11-05T20:14:42.460Z,71.40
2018-11-05T20:18:07.302Z,72.08
2018-11-05T20:21:32.100Z,71.80
2018-11-05T20:24:56.803Z,72.15
2018-11-05T20:28:23.427Z,71.45
2018-11-05T20:31:48.464Z,71.51
2018-11-05T20:35:13.000Z,71.46
2018-11-05T20:38:37.633Z,72.63
2018-11-05T20:42:02.360Z,73.12
2018-11-05T20:45:27.330Z,72.67
2018-11-05T20:48:52.058Z,72.94
2018-11-05T20:52:16.768Z,72.76
2018-11-05T20:55:41.768Z,73.49
2018-11-05T20:59:07.123Z,73.95
2018-11-05T21:02:31.971Z,73.38
2018-11-05T21:05:56.837Z,73.73
2018-11-05T21:09:21.548Z,73.41
2018-11-05T21:12:46.376Z,73.16
2018-11-05T21:16:11.122Z,73.34
2018-11-05T21:19:35.882Z,73.51
2018-11-05T21:23:00.710Z,74.13
2018-11-05T21:26:25.481Z,74.30
2018-11-05T21:29:50.221Z,72.32
2018-11-05T21:33:15.003Z,72.27
2018-11-05T21:36:39.841Z,72.08
2018-11-05T21:40:04.862Z,72.62
2018-11-05T21:43:29.625Z,71.99
2018-11-05T21:46:54.357Z,72.80
2018-11-05T21:50:19.856Z,71.81
2018-11-05T21:53:44.664Z,71.87
2018-11-05T21:57:09.418Z,72.94
2018-11-05T22:00:34.179Z,72.66
2018-11-05T22:03:58.927Z,72.11
2018-11-05T22:07:23.734Z,71.80
2018-11-05T22:10:48.478Z,71.64
2018-11-05T22:14:13.234Z,71.68
2018-11-05T22:17:37.973Z,71.44
2018-11-05T22:21:02.687Z,72.33
2018-11-05T22:24:27.408Z,72.22
2018-11-05T22:27:53.941Z,71.80
2018-11-05T22:31:18.685Z,71.71
2018-11-05T22:34:43.410Z,72.87
2018-11-05T22:38:08.330Z,72.46
2018-11-05T22:41:33.009Z,72.39
2018-11-05T22:44:57.739Z,72.67
2018-11-05T22:48:22.465Z,73.17
2018-11-05T22:51:47.209Z,71.75
2018-11-05T22:55:12.055Z,72.31
2018-11-05T22:58:36.756Z,71.48
2018-11-05T23:02:01.801Z,71.83
2018-11-05T23:05:26.704Z,72.91
2018-11-05T23:08:51.408Z,72.13
2018-11-05T23:12:16.138Z,73.14
2018-11-05T23:15:41.015Z,72.88
2018-11-05T23:19:05.951Z,72.98
2018-11-05T23:22:30.661Z,72.73
2018-11-05T23:25:55.367Z,73.37
2018-11-05T23:29:20.098Z,73.07
2018-11-05T23:32:44.793Z,72.68
2018-11-05T23:36:09.538Z,73.43
2018-11-05T23:39:34.304Z,73.39
2018-11-05T23:42:59.040Z,72.81
2018-11-05T23:46:23.746Z,73.75
2018-11-05T23:49:48.492Z,73.80
2018-11-05T23:53:13.223Z,73.16
2018-11-05T23:56:37.882Z,73.56
